createdAt,value
2022-10-26T00:01:10.889Z,348.70
2022-10-26T00:03:40.429Z,332.42
2022-10-26T00:06:10.608Z,349.10
2022-10-26T00:08:39.474Z,338.52
2022-10-26T00:11:10.062Z,339.27
2022-10-26T00:13:39.199Z,332.38
2022-10-26T00:16:10.706Z,359.42
2022-10-26T00:18:39.400Z,353.25
2022-10-26T00:21:08.485Z,359.40
2022-10-26T00:23:36.954Z,352.13
2022-10-26T00:26:05.691Z,366.13
2022-10-26T00:28:35.649Z,357.15
2022-10-26T00:31:04.604Z,364.35
2022-10-26T00:33:33.470Z,374.50
2022-10-26T00:36:02.127Z,349.90
2022-10-26T00:38:30.954Z,370.02
2022-10-26T00:40:59.569Z,376.83
2022-10-26T00:43:40.212Z,349.63
2022-10-26T00:46:12.200Z,382.40
2022-10-26T00:48:43.590Z,381.60
2022-10-26T00:51:16.164Z,373.90
2022-10-26T00:53:44.852Z,345.52
2022-10-26T00:56:13.461Z,399.67
2022-10-26T00:58:43.250Z,371.50
2022-10-26T01:01:11.839Z,388.63
2022-10-26T01:03:40.486Z,400.85
2022-10-26T01:06:10.289Z,345.75
2022-10-26T01:08:38.758Z,418.40
2022-10-26T01:11:07.793Z,378.85
2022-10-26T01:13:37.437Z,353.08
2022-10-26T01:16:19.272Z,357.25
2022-10-26T01:18:53.815Z,344.80
2022-10-26T01:21:39.081Z,340.45
2022-10-26T01:24:18.071Z,297.02
2022-10-26T01:27:03.358Z,342.23
2022-10-26T01:29:55.897Z,345.38
2022-10-26T01:32:29.146Z,304.98
2022-10-26T01:35:01.284Z,329.80
2022-10-26T01:37:32.533Z,368.17
2022-10-26T01:40:05.351Z,351.45
2022-10-26T01:42:34.066Z,366.35
2022-10-26T01:45:05.519Z,406.65
2022-10-26T01:47:35.875Z,340.23
2022-10-26T01:50:05.027Z,412.05
2022-10-26T01:52:33.535Z,421.98
2022-10-26T01:55:02.941Z,410.70
2022-10-26T01:57:35.839Z,384.48
2022-10-26T02:00:09.310Z,392.58
2022-10-26T02:03:04.450Z,306.57
2022-10-26T02:08:15.673Z,293.33
2022-10-26T02:10:51.807Z,340.58
2022-10-26T02:13:32.890Z,418.30
2022-10-26T02:16:06.186Z,388.65
2022-10-26T02:18:39.374Z,391.75
2022-10-26T02:21:10.509Z,366.13
2022-10-26T02:23:40.901Z,378.33
2022-10-26T02:26:10.990Z,382.10
2022-10-26T02:28:43.518Z,378.73
2022-10-26T02:31:13.542Z,383.85
2022-10-26T02:33:45.772Z,411.40
2022-10-26T02:36:16.752Z,387.08
2022-10-26T02:38:45.758Z,407.98
2022-10-26T02:41:15.202Z,344.20
2022-10-26T02:43:46.799Z,361.58
2022-10-26T02:46:18.338Z,323.88
2022-10-26T02:48:48.320Z,328.63
2022-10-26T02:51:21.006Z,330.42
2022-10-26T02:53:54.488Z,382.75
2022-10-26T02:56:25.788Z,337.73
2022-10-26T02:58:58.666Z,422.95
2022-10-26T03:01:27.420Z,365.60
2022-10-26T03:03:59.081Z,378.70
2022-10-26T03:06:27.970Z,386.85
2022-10-26T03:08:56.460Z,344.95
2022-10-26T03:11:24.881Z,387.25
2022-10-26T03:13:53.281Z,352.55
2022-10-26T03:16:21.701Z,366.00
2022-10-26T03:18:50.085Z,383.13
2022-10-26T03:21:20.041Z,383.88
2022-10-26T03:23:50.552Z,373.00
2022-10-26T03:26:19.130Z,365.25
2022-10-26T03:28:47.538Z,357.33
2022-10-26T03:31:16.098Z,342.95
2022-10-26T03:33:44.650Z,364.23
2022-10-26T03:36:13.147Z,358.98
2022-10-26T03:38:43.039Z,361.58
2022-10-26T03:41:11.577Z,380.60
2022-10-26T03:43:39.964Z,384.20
2022-10-26T03:46:08.563Z,379.10
2022-10-26T03:48:36.852Z,372.88
2022-10-26T03:51:05.309Z,364.33
2022-10-26T03:53:33.795Z,382.67
2022-10-26T03:56:03.565Z,399.30
2022-10-26T03:58:31.930Z,386.45
2022-10-26T04:01:00.308Z,380.02
2022-10-26T04:03:28.829Z,398.58
2022-10-26T04:05:58.086Z,380.17
2022-10-26T04:08:26.422Z,385.60
2022-10-26T04:10:54.889Z,386.77
2022-10-26T04:13:24.736Z,370.55
2022-10-26T04:15:53.079Z,393.00
2022-10-26T04:18:21.662Z,416.27
2022-10-26T04:20:50.106Z,421.98
2022-10-26T04:23:20.393Z,400.45
2022-10-26T04:25:49.094Z,386.95
2022-10-26T04:28:39.871Z,398.23
2022-10-26T04:33:54.772Z,379.95
2022-10-26T04:36:23.394Z,411.05
2022-10-26T04:38:52.100Z,393.58
2022-10-26T04:41:20.675Z,414.17
2022-10-26T04:43:49.060Z,387.40
2022-10-26T04:46:18.985Z,401.80
2022-10-26T04:48:48.537Z,427.77
2022-10-26T04:51:17.030Z,388.77
2022-10-26T04:53:45.360Z,430.67
2022-10-26T04:56:13.815Z,391.95
2022-10-26T04:58:42.231Z,433.33
2022-10-26T05:01:10.658Z,461.83
2022-10-26T05:03:40.539Z,444.65
2022-10-26T05:06:09.083Z,461.10
2022-10-26T05:08:37.477Z,433.55
2022-10-26T05:11:06.273Z,451.40
2022-10-26T05:13:34.665Z,396.05
2022-10-26T05:16:02.979Z,415.90
2022-10-26T05:18:31.408Z,371.80
2022-10-26T05:21:01.313Z,405.50
2022-10-26T05:23:29.685Z,364.63
2022-10-26T05:25:58.074Z,385.67
2022-10-26T05:28:26.348Z,417.35
2022-10-26T05:30:54.661Z,429.23
2022-10-26T05:33:23.026Z,419.00
2022-10-26T05:35:54.685Z,425.42
2022-10-26T05:38:24.470Z,412.40
2022-10-26T05:40:54.124Z,351.30
2022-10-26T05:43:23.960Z,360.08
2022-10-26T05:45:52.350Z,372.95
2022-10-26T05:48:20.897Z,436.75
2022-10-26T05:50:49.273Z,414.83
2022-10-26T05:53:17.807Z,391.30
2022-10-26T05:55:48.269Z,386.35
2022-10-26T05:58:17.191Z,374.27
2022-10-26T06:00:53.514Z,377.48
2022-10-26T06:06:03.862Z,398.52
2022-10-26T06:08:35.354Z,375.60
2022-10-26T06:11:07.102Z,379.05
2022-10-26T06:13:36.165Z,389.77
2022-10-26T06:16:19.216Z,395.77
2022-10-26T06:18:53.150Z,381.38
2022-10-26T06:21:33.674Z,434.27
2022-10-26T06:24:06.186Z,362.38
2022-10-26T06:26:41.969Z,379.52
2022-10-26T06:29:19.587Z,396.05
2022-10-26T06:31:48.315Z,371.60
2022-10-26T06:34:22.879Z,355.00
2022-10-26T06:36:51.818Z,396.58
2022-10-26T06:39:21.462Z,395.77
2022-10-26T06:41:52.215Z,391.55
2022-10-26T06:44:23.969Z,386.50
2022-10-26T06:46:56.695Z,466.40
2022-10-26T06:49:30.344Z,404.35
2022-10-26T06:52:01.111Z,395.08
2022-10-26T06:54:38.850Z,382.42
2022-10-26T06:57:10.487Z,399.48
2022-10-26T06:59:42.045Z,409.63
2022-10-26T07:02:11.281Z,369.35
2022-10-26T07:04:39.899Z,363.83
2022-10-26T07:07:08.258Z,397.73
2022-10-26T07:09:36.608Z,465.67
2022-10-26T07:12:05.233Z,385.92
2022-10-26T07:14:34.964Z,388.27
2022-10-26T07:17:03.606Z,405.75
2022-10-26T07:19:32.063Z,381.15
2022-10-26T07:22:01.175Z,404.35
2022-10-26T07:24:29.691Z,406.38
2022-10-26T07:26:58.806Z,394.23
2022-10-26T07:29:27.849Z,392.80
2022-10-26T07:31:57.654Z,404.30
2022-10-26T07:34:26.041Z,455.85
2022-10-26T07:36:54.503Z,406.02
2022-10-26T07:39:22.891Z,426.58
2022-10-26T07:41:51.200Z,507.90
2022-10-26T07:44:19.511Z,476.67
2022-10-26T07:46:47.930Z,463.85
2022-10-26T07:49:19.554Z,583.67
2022-10-26T07:51:48.431Z,559.40
2022-10-26T07:54:16.859Z,479.25
2022-10-26T07:56:45.295Z,527.20
2022-10-26T07:59:13.891Z,503.50
2022-10-26T08:01:42.395Z,647.58
2022-10-26T08:04:10.862Z,510.98
2022-10-26T08:06:40.616Z,481.52
2022-10-26T08:09:09.088Z,358.17
2022-10-26T08:11:37.809Z,466.42
2022-10-26T08:14:06.294Z,440.35
2022-10-26T08:16:35.939Z,457.25
2022-10-26T08:19:07.277Z,462.77
2022-10-26T08:21:39.523Z,494.73
2022-10-26T08:24:10.468Z,462.80
2022-10-26T08:26:38.941Z,425.88
2022-10-26T08:29:07.462Z,518.70
2022-10-26T08:31:35.858Z,849.63
2022-10-26T08:34:04.587Z,442.83
2022-10-26T08:36:33.120Z,453.95
2022-10-26T08:39:01.461Z,515.55
2022-10-26T08:41:37.669Z,563.20
2022-10-26T08:44:17.383Z,673.83
2022-10-26T08:46:47.927Z,757.75
2022-10-26T08:49:21.580Z,708.55
2022-10-26T08:51:53.185Z,604.42
2022-10-26T08:54:27.852Z,591.47
2022-10-26T08:56:59.729Z,581.85
2022-10-26T08:59:32.197Z,513.50
2022-10-26T09:02:02.687Z,693.25
2022-10-26T09:04:34.100Z,572.53
2022-10-26T09:07:07.154Z,615.58
2022-10-26T09:09:43.215Z,560.60
2022-10-26T09:12:18.780Z,490.10
2022-10-26T09:14:54.844Z,467.48
2022-10-26T09:17:32.993Z,633.40
2022-10-26T09:20:09.225Z,417.33
2022-10-26T09:22:44.300Z,384.38
2022-10-26T09:25:20.050Z,432.05
2022-10-26T09:27:53.087Z,417.65
2022-10-26T09:30:22.935Z,507.67
2022-10-26T09:32:53.494Z,528.53
2022-10-26T09:35:24.892Z,413.02
2022-10-26T09:37:56.121Z,525.65
2022-10-26T09:40:27.158Z,591.00
2022-10-26T09:43:00.696Z,508.77
2022-10-26T09:45:32.593Z,533.28
2022-10-26T09:48:06.729Z,663.28
2022-10-26T09:50:37.843Z,498.48
2022-10-26T09:53:06.190Z,403.50
2022-10-26T09:55:37.636Z,418.38
2022-10-26T09:58:11.668Z,456.92
2022-10-26T10:00:40.766Z,448.02
2022-10-26T10:03:20.883Z,473.90
2022-10-26T10:05:52.048Z,475.33
2022-10-26T10:08:22.905Z,623.15
2022-10-26T10:11:01.934Z,506.98
2022-10-26T10:13:32.882Z,482.95
2022-10-26T10:16:07.326Z,485.88
2022-10-26T10:18:36.427Z,480.50
2022-10-26T10:21:05.946Z,517.38
2022-10-26T10:23:35.752Z,564.00
2022-10-26T10:26:07.358Z,457.02
2022-10-26T10:28:37.767Z,545.45
2022-10-26T10:31:07.605Z,502.80
2022-10-26T10:33:38.548Z,469.20
2022-10-26T10:36:10.374Z,426.42
2022-10-26T10:38:42.946Z,642.00
2022-10-26T10:41:22.330Z,580.33
2022-10-26T10:43:54.515Z,425.00
2022-10-26T10:46:45.109Z,409.25
2022-10-26T10:49:34.295Z,374.65
2022-10-26T10:52:08.030Z,395.52
2022-10-26T10:54:38.931Z,406.02
2022-10-26T10:57:18.288Z,416.30
2022-10-26T11:00:10.043Z,420.90
2022-10-26T11:03:07.048Z,434.60
2022-10-26T11:05:48.041Z,437.00
2022-10-26T11:08:22.285Z,443.60
2022-10-26T11:13:23.234Z,455.27
2022-10-26T11:15:57.753Z,439.98
2022-10-26T11:18:30.481Z,447.15
2022-10-26T11:21:05.919Z,436.27
2022-10-26T11:23:39.279Z,459.95
2022-10-26T11:26:11.116Z,440.17
2022-10-26T11:28:45.992Z,437.90
2022-10-26T11:31:22.768Z,465.80
2022-10-26T11:34:07.123Z,453.30
2022-10-26T11:36:36.607Z,536.47
2022-10-26T11:39:12.460Z,461.48
2022-10-26T11:41:44.785Z,454.05
2022-10-26T11:44:18.277Z,465.73
2022-10-26T11:46:51.071Z,497.38
2022-10-26T11:49:22.547Z,481.77
2022-10-26T11:51:57.046Z,461.95
2022-10-26T11:54:29.966Z,540.03
2022-10-26T11:56:59.186Z,486.75
2022-10-26T11:59:33.305Z,463.98
2022-10-26T12:02:07.405Z,455.90
2022-10-26T12:04:38.258Z,581.08
2022-10-26T12:07:14.632Z,479.17
2022-10-26T12:09:44.650Z,585.08
2022-10-26T12:12:20.042Z,431.65
2022-10-26T12:14:52.857Z,523.70
2022-10-26T12:17:28.031Z,508.92
2022-10-26T12:20:00.081Z,591.35
2022-10-26T12:22:32.573Z,538.83
2022-10-26T12:25:14.695Z,576.80
2022-10-26T12:27:55.313Z,608.95
2022-10-26T12:30:29.388Z,588.30
2022-10-26T12:33:00.091Z,587.78
2022-10-26T12:35:42.934Z,563.20
2022-10-26T12:38:43.881Z,512.47
2022-10-26T12:44:36.141Z,735.47
2022-10-26T12:47:04.853Z,680.92
2022-10-26T12:50:02.970Z,519.65
2022-10-26T12:52:48.481Z,491.80
2022-10-26T12:55:42.995Z,781.00
2022-10-26T12:58:51.227Z,406.50
2022-10-26T13:01:44.540Z,580.45
2022-10-26T13:04:35.120Z,568.47
2022-10-26T13:07:23.879Z,476.48
2022-10-26T13:10:05.143Z,486.20
2022-10-26T13:12:40.648Z,574.03
2022-10-26T13:39:15.879Z,426.52
2022-10-26T13:41:46.734Z,432.52
2022-10-26T13:44:21.348Z,423.88
2022-10-26T13:46:55.655Z,424.23
2022-10-26T13:49:29.107Z,418.45
2022-10-26T13:51:58.065Z,437.17
2022-10-26T13:54:32.642Z,434.42
2022-10-26T13:57:12.489Z,437.33
2022-10-26T13:59:42.908Z,434.05
2022-10-26T14:02:21.137Z,451.45
2022-10-26T14:04:53.098Z,441.15
2022-10-26T14:07:24.210Z,456.10
2022-10-26T14:12:47.969Z,451.00
2022-10-26T14:15:26.275Z,462.85
2022-10-26T14:17:55.842Z,444.13
2022-10-26T14:20:26.167Z,432.55
2022-10-26T14:22:54.675Z,445.42
2022-10-26T14:25:35.939Z,438.88
2022-10-26T14:28:23.599Z,443.33
2022-10-26T14:30:52.465Z,442.77
2022-10-26T14:33:24.273Z,423.80
2022-10-26T14:35:52.784Z,430.05
2022-10-26T14:38:23.237Z,417.00
2022-10-26T14:40:53.398Z,419.90
2022-10-26T14:43:24.833Z,417.10
2022-10-26T14:45:54.225Z,411.85
2022-10-26T14:48:24.816Z,421.65
2022-10-26T14:51:03.987Z,412.98
2022-10-26T14:53:36.017Z,398.17
2022-10-26T14:56:07.043Z,423.40
2022-10-26T14:58:36.226Z,426.55
2022-10-26T15:01:36.294Z,412.52
2022-10-26T15:04:06.556Z,419.15
2022-10-26T15:06:43.607Z,416.73
2022-10-26T15:09:32.703Z,408.70
2022-10-26T15:12:04.000Z,404.58
2022-10-26T15:14:32.580Z,404.65
2022-10-26T15:17:01.133Z,400.60
2022-10-26T15:19:29.641Z,404.33
2022-10-26T15:21:58.142Z,410.48
2022-10-26T15:24:57.569Z,413.65
2022-10-26T15:30:21.987Z,401.40
2022-10-26T15:32:50.960Z,405.67
2022-10-26T15:35:40.319Z,396.13
2022-10-26T15:38:12.625Z,406.50
2022-10-26T15:40:44.376Z,392.63
2022-10-26T15:43:13.447Z,420.25
2022-10-26T15:45:52.045Z,424.92
2022-10-26T15:48:24.326Z,412.08
2022-10-26T15:50:52.782Z,393.58
2022-10-26T15:53:23.202Z,388.27
2022-10-26T15:55:53.714Z,446.73
2022-10-26T15:58:22.276Z,431.60
2022-10-26T16:00:52.244Z,452.88
2022-10-26T16:03:23.190Z,458.48
2022-10-26T16:05:55.153Z,463.80
2022-10-26T16:08:23.705Z,451.98
2022-10-26T16:10:52.168Z,413.92
2022-10-26T16:13:20.865Z,404.10
2022-10-26T16:15:50.866Z,394.98
2022-10-26T16:18:19.320Z,419.27
2022-10-26T16:20:48.136Z,389.45
2022-10-26T16:23:16.626Z,393.05
2022-10-26T16:25:46.386Z,383.95
2022-10-26T16:28:16.705Z,390.00
2022-10-26T16:30:45.751Z,387.55
2022-10-26T16:33:15.872Z,403.50
2022-10-26T16:35:44.429Z,407.00
2022-10-26T16:38:12.863Z,400.65
2022-10-26T16:40:43.220Z,401.20
2022-10-26T16:43:12.252Z,404.00
2022-10-26T16:45:42.722Z,405.65
2022-10-26T16:48:15.078Z,394.48
2022-10-26T16:50:44.890Z,405.85
2022-10-26T16:53:13.282Z,385.52
2022-10-26T16:58:09.998Z,396.00
2022-10-26T17:00:38.775Z,393.98
2022-10-26T17:03:07.222Z,387.52
2022-10-26T17:05:35.637Z,381.33
2022-10-26T17:08:05.575Z,416.73
2022-10-26T17:10:34.422Z,405.77
2022-10-26T17:13:03.795Z,388.40
2022-10-26T17:15:33.354Z,381.77
2022-10-26T17:18:01.783Z,374.52
2022-10-26T17:20:30.820Z,406.20
2022-10-26T17:22:59.280Z,394.50
2022-10-26T17:25:29.181Z,397.25
2022-10-26T17:27:58.541Z,424.77
2022-10-26T17:30:28.509Z,412.27
2022-10-26T17:32:58.825Z,428.73
2022-10-26T17:35:27.306Z,418.35
2022-10-26T17:37:55.695Z,409.17
2022-10-26T17:40:24.124Z,402.80
2022-10-26T17:42:53.880Z,404.85
2022-10-26T17:45:22.289Z,408.88
2022-10-26T17:47:51.421Z,420.33
2022-10-26T17:50:20.068Z,421.20
2022-10-26T17:52:48.363Z,383.77
2022-10-26T17:55:17.025Z,401.15
2022-10-26T17:57:45.418Z,408.70
2022-10-26T18:00:16.212Z,385.33
2022-10-26T18:02:44.779Z,412.73
2022-10-26T18:05:13.250Z,380.70
2022-10-26T18:07:41.647Z,414.27
2022-10-26T18:10:26.290Z,378.23
2022-10-26T18:12:59.111Z,413.90
2022-10-26T18:15:29.011Z,387.25
2022-10-26T18:17:58.618Z,382.38
2022-10-26T18:20:29.173Z,424.00
2022-10-26T18:22:58.029Z,432.92
2022-10-26T18:25:26.490Z,422.88
2022-10-26T18:27:55.149Z,440.55
2022-10-26T18:30:23.683Z,432.77
2022-10-26T18:32:54.145Z,408.63
2022-10-26T18:35:24.066Z,434.75
2022-10-26T18:37:52.956Z,436.27
2022-10-26T18:40:21.696Z,431.10
2022-10-26T18:42:50.062Z,403.63
2022-10-26T18:45:20.557Z,377.45
2022-10-26T18:47:49.322Z,422.40
2022-10-26T18:50:19.579Z,381.63
2022-10-26T18:52:48.058Z,385.88
2022-10-26T18:55:16.518Z,399.27
2022-10-26T18:57:45.014Z,442.83
2022-10-26T19:00:14.830Z,407.65
2022-10-26T19:02:43.127Z,421.92
2022-10-26T19:05:11.502Z,462.25
2022-10-26T19:07:41.174Z,473.67
2022-10-26T19:10:10.879Z,455.83
2022-10-26T19:12:39.329Z,464.38
2022-10-26T19:15:08.672Z,462.65
2022-10-26T19:17:37.120Z,463.40
2022-10-26T19:20:06.419Z,432.25
2022-10-26T19:22:34.883Z,426.83
2022-10-26T19:25:04.838Z,423.05
2022-10-26T19:27:33.290Z,419.30
2022-10-26T19:30:01.590Z,374.13
2022-10-26T19:32:30.184Z,458.25
2022-10-26T19:34:58.460Z,457.23
2022-10-26T19:37:28.525Z,456.23
2022-10-26T19:39:57.035Z,437.27
2022-10-26T19:42:26.824Z,458.70
2022-10-26T19:44:55.243Z,450.83
2022-10-26T19:47:23.858Z,451.17
2022-10-26T19:49:52.255Z,463.33
2022-10-26T19:52:20.665Z,442.75
2022-10-26T19:54:48.950Z,418.85
2022-10-26T19:57:17.269Z,428.83
2022-10-26T19:59:46.929Z,444.10
2022-10-26T20:02:15.283Z,424.20
2022-10-26T20:04:45.197Z,425.63
2022-10-26T20:07:15.220Z,418.05
2022-10-26T20:09:43.707Z,441.52
2022-10-26T20:12:13.776Z,451.20
2022-10-26T20:14:42.281Z,432.17
2022-10-26T20:17:12.042Z,442.02
2022-10-26T20:19:40.354Z,429.02
2022-10-26T20:22:08.745Z,406.35
2022-10-26T20:24:37.171Z,428.75
2022-10-26T20:27:05.643Z,445.75
2022-10-26T20:29:34.043Z,439.00
2022-10-26T20:32:02.405Z,436.73
2022-10-26T20:34:32.200Z,437.42
2022-10-26T20:37:00.624Z,417.15
2022-10-26T20:39:29.534Z,443.70
2022-10-26T20:41:58.505Z,439.60
2022-10-26T20:44:30.321Z,416.98
2022-10-26T20:46:59.424Z,463.83
2022-10-26T20:49:28.186Z,463.70
2022-10-26T20:52:19.923Z,440.35
2022-10-26T20:54:55.215Z,439.50
2022-10-26T20:57:29.803Z,431.52
2022-10-26T21:00:03.510Z,456.48
2022-10-26T21:02:31.953Z,436.02
2022-10-26T21:05:00.382Z,435.00
2022-10-26T21:07:30.280Z,413.95
2022-10-26T21:09:58.557Z,432.52
2022-10-26T21:12:26.939Z,441.08
2022-10-26T21:14:55.360Z,440.27
2022-10-26T21:17:23.769Z,456.38
2022-10-26T21:19:52.082Z,425.95
2022-10-26T21:22:20.474Z,435.52
2022-10-26T21:24:50.281Z,433.73
2022-10-26T21:27:18.663Z,400.85
2022-10-26T21:29:46.994Z,412.52
2022-10-26T21:32:15.306Z,367.65
2022-10-26T21:34:43.717Z,345.40
2022-10-26T21:37:12.129Z,403.67
2022-10-26T21:39:40.412Z,363.73
2022-10-26T21:42:10.291Z,341.38
2022-10-26T21:44:41.381Z,427.38
2022-10-26T21:47:10.409Z,381.17
2022-10-26T21:49:38.966Z,351.05
2022-10-26T21:52:07.928Z,382.77
2022-10-26T21:54:36.352Z,372.15
2022-10-26T21:57:04.802Z,376.27
2022-10-26T21:59:34.698Z,355.48
2022-10-26T22:02:03.279Z,385.98
2022-10-26T22:04:31.777Z,373.58
2022-10-26T22:07:00.174Z,343.80
2022-10-26T22:09:28.567Z,331.75
2022-10-26T22:11:57.078Z,377.50
2022-10-26T22:14:25.573Z,390.55
2022-10-26T22:16:55.249Z,336.33
2022-10-26T22:19:23.633Z,380.80
2022-10-26T22:21:52.007Z,379.38
2022-10-26T22:24:20.368Z,405.55
2022-10-26T22:26:48.697Z,432.17
2022-10-26T22:29:17.166Z,399.52
2022-10-26T22:31:45.533Z,391.27
2022-10-26T22:34:17.483Z,409.38
2022-10-26T22:36:46.176Z,431.08
2022-10-26T22:39:14.613Z,435.92
2022-10-26T22:41:43.247Z,432.67
2022-10-26T22:44:11.583Z,390.80
2022-10-26T22:46:39.961Z,442.20
2022-10-26T22:49:08.431Z,436.83
2022-10-26T22:51:38.121Z,418.27
2022-10-26T22:54:07.069Z,378.20
2022-10-26T22:56:36.538Z,405.40
2022-10-26T22:59:05.014Z,432.20
2022-10-26T23:01:35.019Z,414.88
2022-10-26T23:04:03.624Z,439.67
2022-10-26T23:06:33.094Z,420.60
2022-10-26T23:09:02.922Z,408.85
2022-10-26T23:11:31.917Z,423.90
2022-10-26T23:14:01.537Z,430.65
2022-10-26T23:16:30.861Z,380.60
2022-10-26T23:18:59.870Z,436.75
2022-10-26T23:21:28.962Z,406.40
2022-10-26T23:23:57.799Z,414.98
2022-10-26T23:26:27.474Z,382.83
2022-10-26T23:28:56.105Z,414.98
2022-10-26T23:31:26.062Z,423.73
2022-10-26T23:33:55.833Z,397.00
2022-10-26T23:36:24.449Z,431.98
2022-10-26T23:38:52.882Z,378.55
2022-10-26T23:41:21.292Z,424.00
2022-10-26T23:43:50.946Z,428.73
2022-10-26T23:46:19.456Z,376.60
2022-10-26T23:48:47.851Z,400.35
2022-10-26T23:51:16.274Z,369.98
2022-10-26T23:53:44.647Z,367.10
2022-10-26T23:56:12.952Z,379.05
2022-10-26T23:58:41.298Z,350.60
